ポートルイス の空港の天気 - METARとTAF

サー・シウサガル・ラングラーム国際空港 ( FIMP / MRU ) - モーリシャス ポートルイス
飛行場実況気象(Metar)
観測時間01/23 12:00 MUT (01/23 08:00 UTC)
風向・風速南東 4m/s
視程10km以上
天気現象周辺でしゅう雨
全天の8割程度の雲 雲底高度 490m
気温30℃
湿度75%
気圧1008hPa
METARFIMP 230800Z 13008KT 9999 VCSH BKN016 30/25 Q1008
過去の天気等 Google飛行場航空写真 Wunderground天気予報

過去48時間のMETAR

飛行場予報(TAF)
発表時間: 1/23 09:05 MUT (1/23 05:05 UTC)
予報対象時間: 23日10時 MUT ~ 24日16時 MUT
風向・風速不定 3m/s
視程10km以上
全天の4割程度の雲 雲底高度 460m
23日13時 MUT ~ 23日18時 MUT に一時的に
視程5,000m
23日22時 MUT ~ 23日24時 MUT に徐々に
風向・風速北西 2m/s
24日8時 MUT ~ 24日10時 MUT に徐々に
風向・風速不定 3m/s
TAF FIMP 230505Z 2306/2412 VRB05KT 9999 SCT015
TEMPO 2309/2314 5000 SHRA/TSRA FEW008 FEW012CB BKN013 BKN045
BECMG 2318/2320 32003KT
BECMG 2404/2406 VRB05KT